Tropical Cyclones
[Index]
Main Index Home Page Stock Weather Photos Extreme Storms Discussion Storm News and Storm Chasing Reports Tropical Cyclones / Hurricanes / Typhoons Weather Data and Links Wild Fires / Bushfires Weather Observation Techniques Weather Picture Catalogue Tornado Pictures and Reports Stock Video Footage and DVDs for sale
Season 1964-1965 Tropical Cyclone JUDY Track Map
Season 1964-1965 Summaries: [BoM-AU] [JTWC-AU] [JTWC-SIO] [JTWC-SPAC] [JTWC-SH]
<<- Previous TC | BoM 1964-1965 Season | Next TC ->>

click for intensity scale information  Lat/long Grid: Show Hide

 Date Labels: Show Hide

Bureau of Meteorology Tropical Cyclone Data

Name: JUDY
Number: 394 / 196465_07

25 Jan 1965 23:00 UTC to 05 Feb 1965 17:00 UTC

    date/time    lat    long    hPa   cat  kts
1965-01-25 23   11.6   133.0   1002                     
1965-01-26 05   13.0   133.2   1002                     
1965-01-26 11   13.6   134.0   1002                     
1965-01-26 23   12.7   136.1   1002                     
1965-01-27 02   12.7   136.7   1002                     
1965-01-27 05   13.0   137.2   1000                     
1965-01-27 11   13.5   138.0    998                     
1965-01-27 17   13.8   138.5    996                     
1965-01-27 23   14.5   139.3    996                     
1965-01-28 11   15.5   140.8    996                     
1965-01-28 17   16.1   141.3    996                     
1965-01-28 23   16.7   142.0    996                     
1965-01-29 02   17.1   142.1    998                     
1965-01-29 11   18.0   143.3   1000                     
1965-01-29 23   17.7   145.1    998                     
1965-01-30 03   17.3   146.1    997                     
1965-01-30 11   17.1   148.2    993    1                
1965-01-30 23   17.2   151.6    990    1                
1965-01-31 11   18.9   154.9    988    1                
1965-01-31 23   20.7   158.2    986    1                
1965-02-01 11   22.5   160.9    986    1                
1965-02-01 23   23.2   161.0    986    1                
1965-02-02 11   24.9   159.9    990    1                
1965-02-02 23   26.3   158.7    990    1                
1965-02-03 11   27.8   157.5    990    1                
1965-02-03 23   29.0   157.0    993    1                
1965-02-04 05   29.8   157.4    994    1                
1965-02-04 11   30.0   158.3    998                     
1965-02-04 23   30.8   161.3   1002                     
1965-02-05 11   31.2   163.2   1006                     
1965-02-05 17   31.5   164.5   1008                     
Winds are 10-min average.

Tropical cyclone tracks developed by Michael Bath using data from the Bureau of Meteorology and Google Maps.


[Australian Severe Weather index] [Copyright Notice] [Email Contacts] [Search This Site] [Privacy Policy]
Document: tropical_cyclone_judy.htm Updated: 30 May 2013